Hauptseite
METAR-TAF:

METAR-TAF

Flughäfen :

Fliegerhorst Holzdorf

Holzdorf, Deutschland

Breite: 51-46N, Länge: 013-11E, Höhe: 79 m

Beobachtung

Neuester Wetterbericht von vor 38 Minuten, um 21:20 UTC
Wind 2 kt aus unterschiedlichen Richtungen
Temperatur 18°C
Luftfeuchtigkeit 56%
Luftdruck 1013 hPa
Sichtweite 10 km oder mehr
Aufgelockert bewölkt in der Höhe von 34000 ft

METAR: ETSH 202120Z VRB02KT 9999 SCT340 18/09 Q1013 BLU+

Zeit: 23:58 (21:58 UTC)

Prognose

Neuester Wetterbericht von vor 31 Stunden und 27 Minuten, um 14:31 UTC
Gültige Prognose vom 19 um 14 UTC bis 19 um 23 UTC
Wind 10 kt aus Nordwest, Böen bis zu 20 kt
Sichtweite: 1500 m
Durchbrochene Bewölkung in der Höhe von 5000 ft
Aufgelockert bewölkt in der Höhe von 30000 ft

TAF: ETSH 191431Z 1914/1923 31010G20KT 9999 NSW BKN050 SCT300 CANCEL 1500

Wetterbeobachtungen und Prognosen von mehr als 4000 Flughäfen (METAR und TAF Bericht).

Die verfügbaren Stationen werden durch gelbe und rote Markierungen auf der Karte dargestellt.

Führen Sie die Maus auf sie, um den Namen der Station zu sehen.

Darauf klicken, um die Beobachtung von Wetterbeobachtungen und Prognosen zu sehen.

Um die Karte zu ändern : klicken Sie auf den grünen Tasten mit einem schwarzen Kreuz Zum Vergrößern, auf den grünen Button mit einem Gedankenstrich zu verkleinern, oder auf die grünen Pfeile für benachbarte Karten.


METAR-TAF: